createdAt,value
2019-06-20T00:01:07.946Z,20.78
2019-06-20T00:03:40.262Z,20.85
2019-06-20T00:06:12.306Z,20.88
2019-06-20T00:08:43.861Z,20.85
2019-06-20T00:11:15.661Z,20.83
2019-06-20T00:13:48.195Z,20.80
2019-06-20T00:16:19.979Z,20.78
2019-06-20T00:18:52.228Z,20.78
2019-06-20T00:21:23.995Z,20.75
2019-06-20T00:23:56.567Z,20.74
2019-06-20T00:26:28.442Z,20.72
2019-06-20T00:29:00.471Z,20.70
2019-06-20T00:31:32.144Z,20.68
2019-06-20T00:34:03.819Z,20.70
2019-06-20T00:36:35.409Z,20.69
2019-06-20T00:39:07.963Z,20.70
2019-06-20T00:41:39.665Z,20.65
2019-06-20T00:44:12.426Z,20.70
2019-06-20T00:46:44.002Z,20.73
2019-06-20T00:49:16.074Z,20.74
2019-06-20T00:51:47.882Z,20.72
2019-06-20T00:54:19.975Z,20.68
2019-06-20T00:56:51.795Z,20.67
2019-06-20T00:59:23.622Z,20.68
2019-06-20T01:01:57.068Z,20.62
2019-06-20T01:04:28.869Z,20.44
2019-06-20T01:07:00.934Z,20.38
2019-06-20T01:09:33.096Z,20.40
2019-06-20T01:12:07.175Z,20.36
2019-06-20T01:14:38.809Z,20.40
2019-06-20T01:17:10.859Z,20.42
2019-06-20T01:19:42.455Z,20.44
2019-06-20T01:22:14.071Z,20.51
2019-06-20T01:24:45.840Z,20.51
2019-06-20T01:27:18.204Z,20.54
2019-06-20T01:29:50.155Z,20.56
2019-06-20T01:32:22.302Z,20.57
2019-06-20T01:34:54.592Z,20.59
2019-06-20T01:37:26.979Z,20.55
2019-06-20T01:39:58.880Z,20.42
2019-06-20T01:42:30.645Z,20.42
2019-06-20T01:45:02.230Z,20.46
2019-06-20T01:47:34.161Z,20.46
2019-06-20T01:50:07.448Z,20.42
2019-06-20T01:52:39.215Z,20.32
2019-06-20T01:55:10.891Z,20.14
2019-06-20T01:57:42.644Z,20.11
2019-06-20T02:00:23.624Z,20.09
2019-06-20T02:02:55.159Z,20.06
2019-06-20T02:05:28.466Z,20.16
2019-06-20T02:08:00.364Z,20.19
2019-06-20T02:10:31.930Z,20.23
2019-06-20T02:13:03.820Z,20.24
2019-06-20T02:15:35.530Z,20.10
2019-06-20T02:18:07.345Z,20.09
2019-06-20T02:20:41.746Z,20.07
2019-06-20T02:23:13.434Z,20.10
2019-06-20T02:25:45.075Z,20.01
2019-06-20T02:28:16.914Z,20.03
2019-06-20T02:30:49.611Z,20.03
2019-06-20T02:33:21.543Z,20.03
2019-06-20T02:35:53.230Z,20.10
2019-06-20T02:38:25.400Z,20.03
2019-06-20T02:40:57.076Z,19.88
2019-06-20T02:43:28.701Z,19.79
2019-06-20T02:46:00.520Z,19.76
2019-06-20T02:48:32.032Z,19.78
2019-06-20T02:51:04.151Z,19.85
2019-06-20T02:53:36.275Z,19.89
2019-06-20T02:56:08.858Z,19.85
2019-06-20T02:58:40.589Z,19.78
2019-06-20T03:01:12.628Z,19.60
2019-06-20T03:03:44.254Z,19.46
2019-06-20T03:06:15.919Z,19.47
2019-06-20T03:08:47.878Z,19.53
2019-06-20T03:11:19.451Z,19.53
2019-06-20T03:13:51.365Z,19.61
2019-06-20T03:16:23.231Z,19.71
2019-06-20T03:18:55.479Z,19.75
2019-06-20T03:21:27.370Z,19.78
2019-06-20T03:23:59.230Z,19.79
2019-06-20T03:26:31.165Z,19.83
2019-06-20T03:29:02.795Z,19.87
2019-06-20T03:31:34.438Z,19.91
2019-06-20T03:34:06.071Z,19.99
2019-06-20T03:36:37.842Z,20.04
2019-06-20T03:39:10.233Z,20.10
2019-06-20T03:41:42.216Z,20.14
2019-06-20T03:44:15.316Z,20.18
2019-06-20T03:46:46.933Z,20.24
2019-06-20T03:49:18.789Z,20.32
2019-06-20T03:51:51.748Z,20.37
2019-06-20T03:54:23.925Z,20.42
2019-06-20T03:56:55.784Z,20.48
2019-06-20T03:59:27.800Z,20.54
2019-06-20T04:02:00.124Z,20.61
2019-06-20T04:04:32.374Z,20.63
2019-06-20T04:07:04.563Z,20.70
2019-06-20T04:09:36.240Z,20.74
2019-06-20T04:12:07.841Z,20.80
2019-06-20T04:14:39.406Z,20.87
2019-06-20T04:17:11.201Z,20.86
2019-06-20T04:19:42.965Z,20.90
2019-06-20T04:22:16.746Z,20.87
2019-06-20T04:24:48.530Z,20.88
2019-06-20T04:27:20.058Z,20.89
2019-06-20T04:29:53.151Z,20.94
2019-06-20T04:32:24.785Z,20.96
2019-06-20T04:34:56.421Z,20.84
2019-06-20T04:37:28.269Z,20.67
2019-06-20T04:40:00.318Z,20.65
2019-06-20T04:42:31.926Z,20.72
2019-06-20T04:45:10.188Z,20.69
2019-06-20T04:47:41.961Z,20.65
2019-06-20T04:50:14.280Z,20.59
2019-06-20T04:52:46.055Z,20.52
2019-06-20T04:55:17.610Z,20.60
2019-06-20T04:57:49.575Z,20.70
2019-06-20T05:00:21.560Z,20.75
2019-06-20T05:02:53.710Z,20.81
2019-06-20T05:05:25.531Z,20.88
2019-06-20T05:07:58.385Z,20.95
2019-06-20T05:10:30.297Z,21.04
2019-06-20T05:13:02.118Z,21.10
2019-06-20T05:15:33.744Z,21.17
2019-06-20T05:18:05.638Z,21.25
2019-06-20T05:20:38.152Z,21.32
2019-06-20T05:23:10.072Z,21.44
2019-06-20T05:25:42.006Z,21.55
2019-06-20T05:28:13.625Z,21.62
2019-06-20T05:30:45.368Z,21.64
2019-06-20T05:33:17.233Z,21.72
2019-06-20T05:35:49.800Z,21.81
2019-06-20T05:38:21.562Z,21.89
2019-06-20T05:40:53.398Z,22.00
2019-06-20T05:43:25.170Z,22.06
2019-06-20T05:46:09.465Z,22.18
2019-06-20T05:48:30.251Z,22.24
2019-06-20T05:51:04.820Z,22.27
2019-06-20T05:53:36.501Z,22.24
2019-06-20T05:56:08.742Z,22.21
2019-06-20T05:58:42.068Z,22.30
2019-06-20T06:01:13.654Z,22.39
2019-06-20T06:03:45.469Z,22.40
2019-06-20T06:06:17.462Z,22.53
2019-06-20T06:08:49.365Z,22.54
2019-06-20T06:11:20.945Z,22.56
2019-06-20T06:13:53.372Z,22.56
2019-06-20T06:16:27.268Z,22.57
2019-06-20T06:18:58.891Z,22.68
2019-06-20T06:21:30.426Z,22.77
2019-06-20T06:24:02.385Z,22.85
2019-06-20T06:26:33.991Z,22.92
2019-06-20T06:29:06.955Z,22.93
2019-06-20T06:31:38.719Z,23.01
2019-06-20T06:34:10.303Z,23.16
2019-06-20T06:36:42.164Z,23.19
2019-06-20T06:39:14.700Z,23.33
2019-06-20T06:41:46.434Z,23.39
2019-06-20T06:44:18.153Z,23.48
2019-06-20T06:46:55.802Z,23.51
2019-06-20T06:49:26.491Z,23.58
2019-06-20T06:51:58.089Z,23.59
2019-06-20T06:54:30.291Z,23.63
2019-06-20T06:57:01.827Z,23.72
2019-06-20T06:59:34.356Z,23.71
2019-06-20T07:02:06.907Z,23.82
2019-06-20T07:04:39.165Z,23.86
2019-06-20T07:07:11.121Z,23.88
2019-06-20T07:09:45.037Z,23.91
2019-06-20T07:12:16.910Z,24.00
2019-06-20T07:14:48.604Z,24.02
2019-06-20T07:17:20.181Z,24.02
2019-06-20T07:19:51.867Z,24.14
2019-06-20T07:22:23.823Z,24.23
2019-06-20T07:24:55.442Z,24.25
2019-06-20T07:27:27.176Z,24.33
2019-06-20T07:29:58.753Z,24.21
2019-06-20T07:32:30.664Z,24.27
2019-06-20T07:35:02.402Z,24.36
2019-06-20T07:37:34.092Z,24.44
2019-06-20T07:40:06.816Z,24.47
2019-06-20T07:42:38.829Z,24.47
2019-06-20T07:45:11.057Z,24.62
2019-06-20T07:47:43.122Z,24.73
2019-06-20T07:50:16.718Z,24.79
2019-06-20T07:53:01.598Z,24.80
2019-06-20T07:55:22.044Z,24.94
2019-06-20T07:57:53.936Z,25.07
2019-06-20T08:00:27.142Z,25.17
2019-06-20T08:02:58.957Z,25.27
2019-06-20T08:05:30.635Z,25.38
2019-06-20T08:08:02.354Z,25.70
2019-06-20T08:10:36.495Z,25.76
2019-06-20T08:13:08.501Z,26.01
2019-06-20T08:15:40.081Z,26.13
2019-06-20T08:18:13.198Z,26.15
2019-06-20T08:20:44.966Z,26.27
2019-06-20T08:23:16.658Z,26.43
2019-06-20T08:25:48.411Z,26.51
2019-06-20T08:28:19.977Z,26.40
2019-06-20T08:30:51.725Z,26.57
2019-06-20T08:33:23.294Z,26.77
2019-06-20T08:35:56.923Z,26.86
2019-06-20T08:38:28.667Z,26.91
2019-06-20T08:41:00.407Z,27.17
2019-06-20T08:43:32.309Z,27.00
2019-06-20T08:46:04.197Z,26.66
2019-06-20T08:48:38.657Z,26.01
2019-06-20T08:51:10.722Z,25.62
2019-06-20T08:53:44.549Z,25.85
2019-06-20T08:56:16.489Z,26.12
2019-06-20T08:58:48.046Z,25.76
2019-06-20T09:01:19.595Z,25.73
2019-06-20T09:03:51.641Z,25.84
2019-06-20T09:06:24.473Z,25.59
2019-06-20T09:08:57.053Z,25.58
2019-06-20T09:11:29.377Z,25.83
2019-06-20T09:14:01.508Z,26.00
2019-06-20T09:16:33.418Z,25.84
2019-06-20T09:19:06.283Z,25.83
2019-06-20T09:21:38.073Z,26.19
2019-06-20T09:24:10.010Z,26.37
2019-06-20T09:26:41.913Z,26.30
2019-06-20T09:29:13.534Z,26.08
2019-06-20T09:31:45.511Z,26.32
2019-06-20T09:34:17.327Z,26.42
2019-06-20T09:36:52.009Z,26.37
2019-06-20T09:39:24.089Z,26.05
2019-06-20T09:41:56.567Z,26.54
2019-06-20T09:44:28.364Z,26.70
2019-06-20T09:47:00.229Z,27.03
2019-06-20T09:49:32.042Z,27.35
2019-06-20T09:52:03.527Z,26.74
2019-06-20T09:54:35.481Z,26.60
2019-06-20T09:57:07.147Z,26.37
2019-06-20T09:59:38.757Z,26.40
2019-06-20T10:02:10.392Z,25.77
2019-06-20T10:04:42.124Z,25.87
2019-06-20T10:07:13.802Z,26.12
2019-06-20T10:09:46.712Z,25.99
2019-06-20T10:12:18.915Z,26.06
2019-06-20T10:14:51.564Z,26.06
2019-06-20T10:17:23.090Z,26.10
2019-06-20T10:19:56.235Z,26.36
2019-06-20T10:22:28.047Z,26.34
2019-06-20T10:24:59.601Z,26.44
2019-06-20T10:27:31.127Z,25.85
2019-06-20T10:30:13.971Z,25.90
2019-06-20T10:32:36.026Z,26.23
2019-06-20T10:35:07.825Z,26.68
2019-06-20T10:37:39.926Z,26.83
2019-06-20T10:40:12.156Z,26.73
2019-06-20T10:42:44.984Z,27.13
2019-06-20T10:45:18.420Z,27.22
2019-06-20T10:47:52.895Z,27.42
2019-06-20T10:50:25.480Z,27.64
2019-06-20T10:52:57.084Z,27.63
2019-06-20T10:55:28.970Z,27.12
2019-06-20T10:58:00.492Z,27.44
2019-06-20T11:00:32.586Z,27.72
2019-06-20T11:03:04.373Z,27.97
2019-06-20T11:05:36.327Z,27.92
2019-06-20T11:08:07.949Z,28.05
2019-06-20T11:10:41.777Z,28.11
2019-06-20T11:13:13.617Z,28.55
2019-06-20T11:15:46.219Z,28.45
2019-06-20T11:18:18.307Z,28.50
2019-06-20T11:20:50.018Z,28.47
2019-06-20T11:23:21.820Z,28.26
2019-06-20T11:25:53.532Z,28.52
2019-06-20T11:28:25.682Z,28.78
2019-06-20T11:31:00.475Z,29.03
2019-06-20T11:33:30.552Z,28.98
2019-06-20T11:36:02.440Z,29.10
2019-06-20T11:38:34.700Z,29.31
2019-06-20T11:41:06.317Z,29.15
2019-06-20T11:43:38.540Z,29.27
2019-06-20T11:46:13.089Z,29.65
2019-06-20T11:48:44.608Z,29.89
2019-06-20T11:51:16.424Z,30.09
2019-06-20T11:53:47.973Z,30.52
2019-06-20T11:56:19.787Z,31.12
2019-06-20T11:58:51.590Z,31.40
2019-06-20T12:01:32.473Z,31.69
2019-06-20T12:03:57.735Z,32.20
2019-06-20T12:06:29.336Z,31.83
2019-06-20T12:09:01.470Z,32.38
2019-06-20T12:11:34.011Z,32.65
2019-06-20T12:14:05.759Z,32.38
2019-06-20T12:16:39.075Z,32.62
2019-06-20T12:19:11.023Z,32.63
2019-06-20T12:21:43.245Z,33.52
2019-06-20T12:24:15.071Z,34.07
2019-06-20T12:26:47.141Z,34.72
2019-06-20T12:29:18.666Z,35.14
2019-06-20T12:31:52.838Z,35.51
2019-06-20T12:34:25.557Z,35.57
2019-06-20T12:36:58.139Z,36.25
2019-06-20T12:39:29.635Z,36.09
2019-06-20T12:42:01.565Z,35.78
2019-06-20T12:44:33.491Z,35.73
2019-06-20T12:47:05.574Z,35.52
2019-06-20T12:49:38.632Z,35.18
2019-06-20T12:52:10.906Z,34.65
2019-06-20T12:54:43.295Z,34.21
2019-06-20T12:57:15.719Z,33.92
2019-06-20T12:59:48.254Z,33.90
2019-06-20T13:02:19.999Z,33.81
2019-06-20T13:04:51.823Z,33.87
2019-06-20T13:07:23.514Z,33.44
2019-06-20T13:09:55.570Z,32.30
2019-06-20T13:12:28.230Z,32.20
2019-06-20T13:15:00.217Z,31.04
2019-06-20T13:17:31.861Z,30.69
2019-06-20T13:20:03.716Z,31.05
2019-06-20T13:22:35.507Z,31.25
2019-06-20T13:25:07.853Z,30.99
2019-06-20T13:27:40.948Z,31.36
2019-06-20T13:30:14.762Z,31.33
2019-06-20T13:32:47.194Z,31.40
2019-06-20T13:35:20.364Z,31.33
2019-06-20T13:37:53.810Z,30.97
2019-06-20T13:40:25.775Z,31.09
2019-06-20T13:42:57.361Z,31.21
2019-06-20T13:45:29.301Z,31.01
2019-06-20T13:48:01.199Z,31.10
2019-06-20T13:50:33.263Z,30.95
2019-06-20T13:53:06.018Z,30.78
2019-06-20T13:55:39.402Z,30.89
2019-06-20T13:58:11.382Z,30.71
2019-06-20T14:00:45.447Z,30.74
2019-06-20T14:03:18.233Z,30.86
2019-06-20T14:05:51.738Z,30.77
2019-06-20T14:08:23.604Z,30.70
2019-06-20T14:10:55.471Z,30.52
2019-06-20T14:13:27.307Z,30.32
2019-06-20T14:15:59.483Z,30.32
2019-06-20T14:18:31.688Z,30.26
2019-06-20T14:21:03.227Z,30.18
2019-06-20T14:23:34.833Z,29.66
2019-06-20T14:26:06.611Z,28.81
2019-06-20T14:28:39.413Z,27.28
2019-06-20T14:31:10.962Z,26.36
2019-06-20T14:33:44.184Z,25.08
2019-06-20T14:36:15.952Z,23.89
2019-06-20T14:38:47.445Z,22.44
2019-06-20T14:41:19.110Z,21.64
2019-06-20T14:43:51.811Z,21.19
2019-06-20T14:46:23.587Z,20.95
2019-06-20T14:48:55.488Z,20.81
2019-06-20T14:51:29.324Z,20.58
2019-06-20T14:54:00.930Z,20.56
2019-06-20T14:56:32.683Z,20.53
2019-06-20T14:59:04.289Z,20.64
2019-06-20T15:01:36.245Z,20.77
2019-06-20T15:04:07.820Z,20.87
2019-06-20T15:06:40.405Z,20.91
2019-06-20T15:09:11.998Z,20.91
2019-06-20T15:11:46.484Z,20.97
2019-06-20T15:14:19.346Z,21.06
2019-06-20T15:16:51.352Z,21.12
2019-06-20T15:19:23.246Z,21.22
2019-06-20T15:21:56.334Z,21.33
2019-06-20T15:24:29.676Z,21.37
2019-06-20T15:27:01.628Z,21.39
2019-06-20T15:29:33.805Z,21.46
2019-06-20T15:32:06.818Z,21.55
2019-06-20T15:34:38.449Z,21.62
2019-06-20T15:37:10.190Z,21.69
2019-06-20T15:39:42.139Z,21.77
2019-06-20T15:42:14.402Z,21.84
2019-06-20T15:44:48.968Z,21.87
2019-06-20T15:47:21.029Z,21.97
2019-06-20T15:49:52.725Z,22.07
2019-06-20T15:52:24.238Z,22.15
2019-06-20T15:54:56.351Z,22.23
2019-06-20T15:57:28.173Z,22.30
2019-06-20T16:00:00.929Z,22.41
2019-06-20T16:02:32.904Z,22.52
2019-06-20T16:05:05.789Z,22.56
2019-06-20T16:07:37.728Z,22.60
2019-06-20T16:10:09.388Z,22.77
2019-06-20T16:12:41.180Z,22.95
2019-06-20T16:15:14.629Z,23.10
2019-06-20T16:17:46.294Z,23.30
2019-06-20T16:20:18.781Z,23.44
2019-06-20T16:22:50.456Z,23.50
2019-06-20T16:25:22.423Z,23.70
2019-06-20T16:27:54.327Z,23.93
2019-06-20T16:30:26.474Z,24.11
2019-06-20T16:32:58.188Z,24.39
2019-06-20T16:35:29.956Z,24.61
2019-06-20T16:38:01.839Z,24.82
2019-06-20T16:40:42.743Z,25.00
2019-06-20T16:43:16.001Z,25.40
2019-06-20T16:45:47.710Z,25.61
2019-06-20T16:48:19.364Z,25.64
2019-06-20T16:50:50.943Z,25.67
2019-06-20T16:53:22.535Z,25.51
2019-06-20T16:55:54.144Z,25.55
2019-06-20T16:58:25.914Z,25.57
2019-06-20T17:00:57.733Z,25.62
2019-06-20T17:03:41.167Z,25.67
2019-06-20T17:06:05.173Z,25.69
2019-06-20T17:08:36.745Z,25.66
2019-06-20T17:11:08.753Z,25.57
2019-06-20T17:13:40.854Z,25.25
2019-06-20T17:16:12.857Z,24.93
2019-06-20T17:18:44.816Z,24.66
2019-06-20T17:21:16.437Z,24.63
2019-06-20T17:23:48.939Z,24.61
2019-06-20T17:26:20.597Z,24.61
2019-06-20T17:28:52.985Z,24.71
2019-06-20T17:31:24.764Z,24.62
2019-06-20T17:33:58.084Z,24.58
2019-06-20T17:36:30.671Z,24.52
2019-06-20T17:39:02.416Z,24.49
2019-06-20T17:41:35.547Z,24.45
2019-06-20T17:44:07.526Z,24.43
2019-06-20T17:46:39.304Z,24.34
2019-06-20T17:49:10.847Z,24.29
2019-06-20T17:51:42.812Z,24.26
2019-06-20T17:54:14.978Z,24.24
2019-06-20T17:56:46.988Z,24.25
2019-06-20T17:59:21.732Z,24.30
2019-06-20T18:01:51.838Z,24.25
2019-06-20T18:04:26.688Z,24.19
2019-06-20T18:06:57.433Z,24.17
2019-06-20T18:09:29.330Z,24.13
2019-06-20T18:12:01.124Z,24.08
2019-06-20T18:14:34.199Z,24.00
2019-06-20T18:17:06.312Z,23.96
2019-06-20T18:19:38.235Z,23.92
2019-06-20T18:22:09.883Z,23.88
2019-06-20T18:24:41.788Z,23.94
2019-06-20T18:27:13.611Z,23.91
2019-06-20T18:29:45.340Z,23.87
2019-06-20T18:32:17.280Z,23.88
2019-06-20T18:35:01.527Z,23.86
2019-06-20T18:37:31.480Z,23.84
2019-06-20T18:39:55.781Z,23.88
2019-06-20T18:42:27.543Z,23.85
2019-06-20T18:44:59.078Z,23.78
2019-06-20T18:47:30.633Z,23.74
2019-06-20T18:50:02.317Z,23.69
2019-06-20T18:52:34.064Z,23.64
2019-06-20T18:55:06.535Z,23.61
2019-06-20T18:57:38.193Z,23.58
2019-06-20T19:00:11.324Z,23.50
2019-06-20T19:02:43.310Z,23.46
2019-06-20T19:05:15.338Z,23.41
2019-06-20T19:07:47.100Z,23.32
2019-06-20T19:10:23.161Z,23.21
2019-06-20T19:12:55.016Z,23.17
2019-06-20T19:15:27.273Z,23.01
2019-06-20T19:17:59.154Z,22.92
2019-06-20T19:20:30.774Z,22.75
2019-06-20T19:23:02.473Z,22.63
2019-06-20T19:25:35.641Z,22.44
2019-06-20T19:28:07.630Z,22.38
2019-06-20T19:30:45.763Z,22.39
2019-06-20T19:33:17.444Z,22.40
2019-06-20T19:35:49.783Z,22.42
2019-06-20T19:38:21.833Z,22.40
2019-06-20T19:40:54.735Z,22.36
2019-06-20T19:43:26.258Z,22.41
2019-06-20T19:45:58.295Z,22.38
2019-06-20T19:48:30.210Z,22.37
2019-06-20T19:51:01.852Z,22.39
2019-06-20T19:53:33.781Z,22.38
2019-06-20T19:56:05.911Z,22.42
2019-06-20T19:58:37.487Z,22.46
2019-06-20T20:01:09.383Z,22.51
2019-06-20T20:03:41.048Z,22.50
2019-06-20T20:06:12.740Z,22.47
2019-06-20T20:08:44.647Z,22.45
2019-06-20T20:11:17.300Z,22.53
2019-06-20T20:13:49.108Z,22.53
2019-06-20T20:16:20.909Z,22.54
2019-06-20T20:18:52.522Z,22.54
2019-06-20T20:21:24.279Z,22.53
2019-06-20T20:23:56.012Z,22.53
2019-06-20T20:26:28.274Z,22.49
2019-06-20T20:29:00.086Z,22.47
2019-06-20T20:31:31.612Z,22.46
2019-06-20T20:34:04.826Z,22.42
2019-06-20T20:36:37.405Z,22.41
2019-06-20T20:39:09.019Z,22.41
2019-06-20T20:41:40.691Z,22.35
2019-06-20T20:44:12.579Z,22.30
2019-06-20T20:46:44.132Z,22.24
2019-06-20T20:49:16.105Z,22.21
2019-06-20T20:51:47.695Z,22.22
2019-06-20T20:54:19.726Z,22.22
2019-06-20T20:56:51.490Z,22.22
2019-06-20T20:59:23.284Z,22.19
2019-06-20T21:01:55.184Z,22.19
2019-06-20T21:04:27.065Z,22.18
2019-06-20T21:06:58.724Z,22.09
2019-06-20T21:09:30.618Z,22.02
2019-06-20T21:12:02.208Z,22.04
2019-06-20T21:14:33.893Z,22.07
2019-06-20T21:17:05.984Z,22.07
2019-06-20T21:19:37.509Z,22.02
2019-06-20T21:22:09.228Z,22.00
2019-06-20T21:24:40.768Z,21.96
2019-06-20T21:27:12.658Z,21.98
2019-06-20T21:29:44.426Z,21.97
2019-06-20T21:32:16.242Z,21.97
2019-06-20T21:34:48.999Z,21.95
2019-06-20T21:37:21.051Z,21.96
2019-06-20T21:39:53.063Z,21.95
2019-06-20T21:42:24.697Z,21.94
2019-06-20T21:44:57.558Z,21.95
2019-06-20T21:47:29.291Z,21.96
2019-06-20T21:50:00.834Z,21.95
2019-06-20T21:52:32.738Z,21.89
2019-06-20T21:55:04.976Z,21.89
2019-06-20T21:57:36.713Z,21.80
2019-06-20T22:00:14.141Z,21.76
2019-06-20T22:02:47.787Z,21.73
2019-06-20T22:05:19.990Z,21.70
2019-06-20T22:07:52.028Z,21.71
2019-06-20T22:10:24.267Z,21.70
2019-06-20T22:12:56.282Z,21.62
2019-06-20T22:15:28.136Z,21.46
2019-06-20T22:18:00.847Z,21.47
2019-06-20T22:20:32.628Z,21.46
2019-06-20T22:23:04.497Z,21.48
2019-06-20T22:25:36.161Z,21.51
2019-06-20T22:28:08.176Z,21.46
2019-06-20T22:30:53.115Z,21.48
2019-06-20T22:33:24.917Z,21.50
2019-06-20T22:35:56.526Z,21.47
2019-06-20T22:38:28.407Z,21.55
2019-06-20T22:41:00.267Z,21.57
2019-06-20T22:43:31.948Z,21.52
2019-06-20T22:46:04.109Z,21.53
2019-06-20T22:48:36.026Z,21.32
2019-06-20T22:51:07.917Z,21.31
2019-06-20T22:53:39.753Z,21.32
2019-06-20T22:56:11.554Z,21.34
2019-06-20T22:58:43.130Z,21.26
2019-06-20T23:01:14.843Z,21.24
2019-06-20T23:03:46.844Z,21.21
2019-06-20T23:06:18.991Z,21.17
2019-06-20T23:08:51.023Z,21.12
2019-06-20T23:11:22.597Z,21.10
2019-06-20T23:13:54.303Z,21.04
2019-06-20T23:16:26.261Z,20.98
2019-06-20T23:18:58.707Z,20.92
2019-06-20T23:21:30.305Z,20.95
2019-06-20T23:24:02.205Z,20.96
2019-06-20T23:26:34.438Z,20.99
2019-06-20T23:29:25.405Z,20.95
2019-06-20T23:31:57.958Z,20.85
2019-06-20T23:34:29.451Z,20.85
2019-06-20T23:37:12.154Z,20.83
2019-06-20T23:39:35.139Z,20.74
2019-06-20T23:42:06.743Z,20.68
2019-06-20T23:44:38.398Z,20.60
2019-06-20T23:47:10.141Z,20.58
2019-06-20T23:49:42.168Z,20.49
2019-06-20T23:52:17.803Z,20.52
2019-06-20T23:54:50.113Z,20.47
2019-06-20T23:57:22.186Z,20.43
2019-06-20T23:59:53.729Z,20.46
